sensor_id;sensor_type;location;lat;lon;timestamp;pressure;altitude;pressure_sealevel;temperature;humidity
77975;BME280;67164;51.202;0.278;2023-12-22T00:01:13;100861.41;;;21.25;39.12
77975;BME280;67164;51.202;0.278;2023-12-22T00:03:38;100861.35;;;21.49;38.44
77975;BME280;67164;51.202;0.278;2023-12-22T00:06:04;100856.76;;;21.46;38.47
77975;BME280;67164;51.202;0.278;2023-12-22T00:08:30;100854.02;;;21.46;38.38
77975;BME280;67164;51.202;0.278;2023-12-22T00:10:56;100850.67;;;21.11;38.69
77975;BME280;67164;51.202;0.278;2023-12-22T00:13:21;100856.15;;;21.12;38.50
77975;BME280;67164;51.202;0.278;2023-12-22T00:15:47;100849.99;;;21.31;38.63
77975;BME280;67164;51.202;0.278;2023-12-22T00:18:13;100846.85;;;21.31;38.44
77975;BME280;67164;51.202;0.278;2023-12-22T00:20:39;100842.65;;;21.31;38.28
77975;BME280;67164;51.202;0.278;2023-12-22T00:23:04;100851.83;;;21.26;38.32
77975;BME280;67164;51.202;0.278;2023-12-22T00:25:30;100846.80;;;20.96;38.64
77975;BME280;67164;51.202;0.278;2023-12-22T00:27:56;100851.36;;;21.14;38.04
77975;BME280;67164;51.202;0.278;2023-12-22T00:30:21;100850.25;;;21.14;38.19
77975;BME280;67164;51.202;0.278;2023-12-22T00:32:48;100851.76;;;21.35;38.16
77975;BME280;67164;51.202;0.278;2023-12-22T00:35:13;100847.13;;;20.86;38.25
77975;BME280;67164;51.202;0.278;2023-12-22T00:37:39;100838.89;;;21.06;38.34
77975;BME280;67164;51.202;0.278;2023-12-22T00:40:05;100835.00;;;21.07;38.29
77975;BME280;67164;51.202;0.278;2023-12-22T00:42:30;100834.87;;;21.04;38.43
77975;BME280;67164;51.202;0.278;2023-12-22T00:44:56;100837.79;;;21.21;38.52
77975;BME280;67164;51.202;0.278;2023-12-22T00:47:22;100839.28;;;20.99;38.27
77975;BME280;67164;51.202;0.278;2023-12-22T00:49:48;100853.16;;;21.20;38.55
77975;BME280;67164;51.202;0.278;2023-12-22T00:52:14;100855.73;;;21.20;38.45
77975;BME280;67164;51.202;0.278;2023-12-22T00:54:39;100846.81;;;21.15;38.33
77975;BME280;67164;51.202;0.278;2023-12-22T00:57:05;100860.69;;;21.18;38.20
77975;BME280;67164;51.202;0.278;2023-12-22T00:59:31;100861.74;;;20.95;38.20
77975;BME280;67164;51.202;0.278;2023-12-22T01:01:56;100864.53;;;20.71;38.17
77975;BME280;67164;51.202;0.278;2023-12-22T01:04:22;100864.50;;;21.15;38.34
77975;BME280;67164;51.202;0.278;2023-12-22T01:06:48;100862.28;;;21.11;38.55
77975;BME280;67164;51.202;0.278;2023-12-22T01:09:14;100862.14;;;21.11;38.50
77975;BME280;67164;51.202;0.278;2023-12-22T01:11:39;100856.22;;;20.89;38.14
77975;BME280;67164;51.202;0.278;2023-12-22T01:14:05;100864.43;;;20.82;38.14
77975;BME280;67164;51.202;0.278;2023-12-22T01:16:31;100864.28;;;21.09;38.09
77975;BME280;67164;51.202;0.278;2023-12-22T01:18:57;100856.52;;;20.82;38.45
77975;BME280;67164;51.202;0.278;2023-12-22T01:21:22;100864.19;;;20.76;38.69
77975;BME280;67164;51.202;0.278;2023-12-22T01:23:48;100870.56;;;20.74;38.58
77975;BME280;67164;51.202;0.278;2023-12-22T01:26:14;100878.05;;;20.73;38.35
77975;BME280;67164;51.202;0.278;2023-12-22T01:28:40;100877.08;;;20.98;38.87
77975;BME280;67164;51.202;0.278;2023-12-22T01:31:05;100876.58;;;20.70;38.73
77975;BME280;67164;51.202;0.278;2023-12-22T01:33:31;100877.22;;;20.83;38.48
77975;BME280;67164;51.202;0.278;2023-12-22T01:35:57;100875.36;;;20.84;38.65
77975;BME280;67164;51.202;0.278;2023-12-22T01:38:23;100883.17;;;20.60;38.64
77975;BME280;67164;51.202;0.278;2023-12-22T01:40:49;100880.77;;;20.77;38.54
77975;BME280;67164;51.202;0.278;2023-12-22T01:43:14;100881.95;;;20.52;38.63
77975;BME280;67164;51.202;0.278;2023-12-22T01:45:40;100883.01;;;20.68;38.69
77975;BME280;67164;51.202;0.278;2023-12-22T01:48:06;100887.80;;;20.67;38.84
77975;BME280;67164;51.202;0.278;2023-12-22T01:50:32;100890.71;;;20.68;38.76
77975;BME280;67164;51.202;0.278;2023-12-22T01:52:57;100892.56;;;20.42;38.59
77975;BME280;67164;51.202;0.278;2023-12-22T01:55:23;100889.60;;;20.58;38.59
77975;BME280;67164;51.202;0.278;2023-12-22T01:57:49;100885.80;;;20.65;38.54
77975;BME280;67164;51.202;0.278;2023-12-22T02:00:15;100878.49;;;20.58;38.65
77975;BME280;67164;51.202;0.278;2023-12-22T02:02:41;100874.27;;;20.58;38.52
77975;BME280;67164;51.202;0.278;2023-12-22T02:05:07;100871.95;;;20.58;38.73
77975;BME280;67164;51.202;0.278;2023-12-22T02:07:32;100856.02;;;20.54;38.71
77975;BME280;67164;51.202;0.278;2023-12-22T02:09:58;100862.39;;;20.54;38.72
77975;BME280;67164;51.202;0.278;2023-12-22T02:12:24;100865.20;;;20.52;38.82
77975;BME280;67164;51.202;0.278;2023-12-22T02:14:50;100859.10;;;20.51;38.94
77975;BME280;67164;51.202;0.278;2023-12-22T02:17:20;100855.06;;;20.51;38.76
77975;BME280;67164;51.202;0.278;2023-12-22T02:19:43;100861.71;;;20.48;38.83
77975;BME280;67164;51.202;0.278;2023-12-22T02:22:08;100861.63;;;20.50;38.65
77975;BME280;67164;51.202;0.278;2023-12-22T02:24:33;100866.46;;;20.44;38.89
77975;BME280;67164;51.202;0.278;2023-12-22T02:27:04;100864.75;;;20.63;38.67
77975;BME280;67164;51.202;0.278;2023-12-22T02:29:25;100864.16;;;20.89;38.57
77975;BME280;67164;51.202;0.278;2023-12-22T02:31:52;100865.48;;;20.36;38.60
77975;BME280;67164;51.202;0.278;2023-12-22T02:34:19;100868.82;;;20.36;38.60
77975;BME280;67164;51.202;0.278;2023-12-22T02:36:42;100869.76;;;20.95;38.52
77975;BME280;67164;51.202;0.278;2023-12-22T02:39:08;100870.70;;;20.12;38.89
77975;BME280;67164;51.202;0.278;2023-12-22T02:41:34;100882.08;;;20.34;38.93
77975;BME280;67164;51.202;0.278;2023-12-22T02:43:59;100882.18;;;20.31;38.91
77975;BME280;67164;51.202;0.278;2023-12-22T02:46:25;100877.49;;;20.28;38.74
77975;BME280;67164;51.202;0.278;2023-12-22T02:48:51;100880.51;;;20.19;38.89
77975;BME280;67164;51.202;0.278;2023-12-22T02:51:16;100874.80;;;20.23;38.95
77975;BME280;67164;51.202;0.278;2023-12-22T02:53:42;100866.58;;;20.29;38.71
77975;BME280;67164;51.202;0.278;2023-12-22T02:56:08;100852.97;;;20.21;38.74
77975;BME280;67164;51.202;0.278;2023-12-22T02:58:34;100841.77;;;20.45;38.78
77975;BME280;67164;51.202;0.278;2023-12-22T03:01:00;100836.10;;;20.21;38.78
77975;BME280;67164;51.202;0.278;2023-12-22T03:03:25;100843.52;;;20.17;38.92
77975;BME280;67164;51.202;0.278;2023-12-22T03:05:51;100843.69;;;19.94;38.99
77975;BME280;67164;51.202;0.278;2023-12-22T03:08:17;100839.45;;;20.17;39.06
77975;BME280;67164;51.202;0.278;2023-12-22T03:10:43;100829.17;;;20.41;39.01
77975;BME280;67164;51.202;0.278;2023-12-22T03:13:09;100818.96;;;20.14;38.86
77975;BME280;67164;51.202;0.278;2023-12-22T03:15:34;100817.11;;;20.08;39.06
77975;BME280;67164;51.202;0.278;2023-12-22T03:18:00;100814.48;;;20.10;39.17
77975;BME280;67164;51.202;0.278;2023-12-22T03:20:26;100802.26;;;20.07;39.31
77975;BME280;67164;51.202;0.278;2023-12-22T03:22:52;100796.83;;;20.33;39.39
77975;BME280;67164;51.202;0.278;2023-12-22T03:25:17;100798.04;;;20.32;39.41
77975;BME280;67164;51.202;0.278;2023-12-22T03:27:43;100789.47;;;20.57;39.59
77975;BME280;67164;51.202;0.278;2023-12-22T03:30:10;100784.38;;;20.08;39.53
77975;BME280;67164;51.202;0.278;2023-12-22T03:32:35;100778.45;;;20.09;39.56
77975;BME280;67164;51.202;0.278;2023-12-22T03:35:00;100783.14;;;20.30;39.52
77975;BME280;67164;51.202;0.278;2023-12-22T03:37:26;100776.99;;;20.07;39.50
77975;BME280;67164;51.202;0.278;2023-12-22T03:39:52;100773.37;;;20.30;39.49
77975;BME280;67164;51.202;0.278;2023-12-22T03:42:18;100768.30;;;20.02;39.59
77975;BME280;67164;51.202;0.278;2023-12-22T03:44:44;100764.94;;;20.28;39.51
77975;BME280;67164;51.202;0.278;2023-12-22T03:47:09;100766.57;;;20.02;39.68
77975;BME280;67164;51.202;0.278;2023-12-22T03:49:35;100763.13;;;19.98;39.57
77975;BME280;67164;51.202;0.278;2023-12-22T03:52:01;100758.31;;;19.98;39.51
77975;BME280;67164;51.202;0.278;2023-12-22T03:54:27;100765.24;;;20.19;39.52
77975;BME280;67164;51.202;0.278;2023-12-22T03:56:53;100771.90;;;19.93;39.50
77975;BME280;67164;51.202;0.278;2023-12-22T03:59:18;100768.65;;;20.20;39.56
77975;BME280;67164;51.202;0.278;2023-12-22T04:01:44;100755.84;;;19.90;39.48
77975;BME280;67164;51.202;0.278;2023-12-22T04:04:10;100754.23;;;19.91;39.63
77975;BME280;67164;51.202;0.278;2023-12-22T04:06:38;100758.96;;;20.35;39.54
77975;BME280;67164;51.202;0.278;2023-12-22T04:09:01;100754.94;;;20.13;39.41
77975;BME280;67164;51.202;0.278;2023-12-22T04:11:27;100757.54;;;20.40;39.55
77975;BME280;67164;51.202;0.278;2023-12-22T04:13:53;100756.45;;;19.86;39.53
77975;BME280;67164;51.202;0.278;2023-12-22T04:16:19;100758.45;;;19.84;39.45
77975;BME280;67164;51.202;0.278;2023-12-22T04:18:45;100752.70;;;19.87;39.55
77975;BME280;67164;51.202;0.278;2023-12-22T04:21:10;100750.90;;;19.83;39.47
77975;BME280;67164;51.202;0.278;2023-12-22T04:23:36;100744.08;;;20.33;39.62
77975;BME280;67164;51.202;0.278;2023-12-22T04:26:02;100760.36;;;20.29;39.61
77975;BME280;67164;51.202;0.278;2023-12-22T04:28:28;100760.21;;;20.03;39.63
77975;BME280;67164;51.202;0.278;2023-12-22T04:30:53;100750.93;;;20.26;39.60
77975;BME280;67164;51.202;0.278;2023-12-22T04:33:19;100752.41;;;19.77;39.67
77975;BME280;67164;51.202;0.278;2023-12-22T04:35:45;100754.31;;;19.77;39.65
77975;BME280;67164;51.202;0.278;2023-12-22T04:38:11;100751.54;;;20.00;39.56
77975;BME280;67164;51.202;0.278;2023-12-22T04:40:37;100742.82;;;20.25;39.71
77975;BME280;67164;51.202;0.278;2023-12-22T04:43:03;100753.68;;;20.23;39.64
77975;BME280;67164;51.202;0.278;2023-12-22T04:45:28;100754.47;;;19.72;39.68
77975;BME280;67164;51.202;0.278;2023-12-22T04:47:54;100761.92;;;19.98;39.70
77975;BME280;67164;51.202;0.278;2023-12-22T04:50:20;100751.65;;;20.00;39.65
77975;BME280;67164;51.202;0.278;2023-12-22T04:52:45;100753.32;;;19.97;39.73
77975;BME280;67164;51.202;0.278;2023-12-22T04:55:11;100752.86;;;19.73;39.73
77975;BME280;67164;51.202;0.278;2023-12-22T04:57:37;100749.29;;;19.93;39.80
77975;BME280;67164;51.202;0.278;2023-12-22T05:00:04;100751.33;;;19.74;39.77
77975;BME280;67164;51.202;0.278;2023-12-22T05:02:29;100744.13;;;19.72;39.78
77975;BME280;67164;51.202;0.278;2023-12-22T05:04:54;100744.43;;;19.63;39.72
77975;BME280;67164;51.202;0.278;2023-12-22T05:07:20;100739.14;;;19.62;39.81
77975;BME280;67164;51.202;0.278;2023-12-22T05:09:46;100739.29;;;20.10;39.82
77975;BME280;67164;51.202;0.278;2023-12-22T05:12:12;100744.14;;;19.61;39.79
77975;BME280;67164;51.202;0.278;2023-12-22T05:14:38;100728.64;;;19.86;39.80
77975;BME280;67164;51.202;0.278;2023-12-22T05:17:04;100738.12;;;19.61;39.85
77975;BME280;67164;51.202;0.278;2023-12-22T05:19:29;100740.60;;;19.84;39.88
77975;BME280;67164;51.202;0.278;2023-12-22T05:21:55;100740.63;;;19.85;39.76
77975;BME280;67164;51.202;0.278;2023-12-22T05:24:21;100737.02;;;20.10;39.85
77975;BME280;67164;51.202;0.278;2023-12-22T05:26:46;100736.93;;;19.59;39.90
77975;BME280;67164;51.202;0.278;2023-12-22T05:29:12;100720.69;;;20.05;40.00
77975;BME280;67164;51.202;0.278;2023-12-22T05:31:38;100721.74;;;19.58;39.97
77975;BME280;67164;51.202;0.278;2023-12-22T05:34:04;100727.00;;;20.05;40.01
77975;BME280;67164;51.202;0.278;2023-12-22T05:36:30;100735.26;;;19.82;39.92
77975;BME280;67164;51.202;0.278;2023-12-22T05:38:55;100738.15;;;19.78;39.95
77975;BME280;67164;51.202;0.278;2023-12-22T05:41:21;100734.41;;;19.53;40.03
77975;BME280;67164;51.202;0.278;2023-12-22T05:43:47;100727.88;;;19.99;39.97
77975;BME280;67164;51.202;0.278;2023-12-22T05:46:13;100714.49;;;20.01;40.01
77975;BME280;67164;51.202;0.278;2023-12-22T05:48:38;100726.29;;;19.95;40.02
77975;BME280;67164;51.202;0.278;2023-12-22T05:51:04;100718.92;;;19.67;40.10
77975;BME280;67164;51.202;0.278;2023-12-22T05:53:30;100730.60;;;19.68;40.02
77975;BME280;67164;51.202;0.278;2023-12-22T05:55:56;100731.13;;;19.42;40.02
77975;BME280;67164;51.202;0.278;2023-12-22T05:58:22;100735.88;;;19.75;40.02
77975;BME280;67164;51.202;0.278;2023-12-22T06:00:47;100740.58;;;19.93;39.84
77975;BME280;67164;51.202;0.278;2023-12-22T06:03:13;100743.87;;;19.67;40.01
77975;BME280;67164;51.202;0.278;2023-12-22T06:05:39;100753.29;;;19.92;40.07
77975;BME280;67164;51.202;0.278;2023-12-22T06:08:05;100755.39;;;19.92;40.12
77975;BME280;67164;51.202;0.278;2023-12-22T06:10:31;100755.86;;;19.64;40.12
77975;BME280;67164;51.202;0.278;2023-12-22T06:12:56;100755.16;;;19.60;40.19
77975;BME280;67164;51.202;0.278;2023-12-22T06:15:22;100758.56;;;19.85;40.14
77975;BME280;67164;51.202;0.278;2023-12-22T06:17:48;100752.07;;;19.91;40.16
77975;BME280;67164;51.202;0.278;2023-12-22T06:20:14;100746.80;;;19.64;40.20
77975;BME280;67164;51.202;0.278;2023-12-22T06:22:39;100742.52;;;19.62;40.18
77975;BME280;67164;51.202;0.278;2023-12-22T06:25:06;100742.15;;;19.35;40.26
77975;BME280;67164;51.202;0.278;2023-12-22T06:27:31;100750.27;;;19.58;40.26
77975;BME280;67164;51.202;0.278;2023-12-22T06:29:57;100744.40;;;19.84;40.19
77975;BME280;67164;51.202;0.278;2023-12-22T06:32:23;100743.38;;;19.80;40.26
77975;BME280;67164;51.202;0.278;2023-12-22T06:34:48;100742.48;;;19.78;40.29
77975;BME280;67164;51.202;0.278;2023-12-22T06:37:14;100744.87;;;19.78;40.34
77975;BME280;67164;51.202;0.278;2023-12-22T06:39:40;100742.50;;;19.84;40.30
77975;BME280;67164;51.202;0.278;2023-12-22T06:42:06;100733.60;;;19.77;40.41
77975;BME280;67164;51.202;0.278;2023-12-22T06:44:31;100731.86;;;19.54;40.40
77975;BME280;67164;51.202;0.278;2023-12-22T06:46:57;100733.75;;;19.76;40.40
77975;BME280;67164;51.202;0.278;2023-12-22T06:49:23;100740.48;;;19.26;40.33
77975;BME280;67164;51.202;0.278;2023-12-22T06:51:49;100745.09;;;19.75;40.45
77975;BME280;67164;51.202;0.278;2023-12-22T06:54:15;100748.25;;;19.73;40.44
77975;BME280;67164;51.202;0.278;2023-12-22T06:56:40;100747.20;;;19.50;40.56
77975;BME280;67164;51.202;0.278;2023-12-22T06:59:06;100746.25;;;19.71;40.49
77975;BME280;67164;51.202;0.278;2023-12-22T07:01:33;100750.03;;;19.75;40.49
77975;BME280;67164;51.202;0.278;2023-12-22T07:03:59;100751.09;;;19.68;40.47
77975;BME280;67164;51.202;0.278;2023-12-22T07:06:25;100751.63;;;19.71;40.51
77975;BME280;67164;51.202;0.278;2023-12-22T07:11:15;100755.65;;;19.46;40.48
77975;BME280;67164;51.202;0.278;2023-12-22T07:13:41;100753.35;;;19.74;40.49
77975;BME280;67164;51.202;0.278;2023-12-22T07:16:07;100754.22;;;19.71;40.47
77975;BME280;67164;51.202;0.278;2023-12-22T07:18:33;100756.20;;;19.38;40.58
77975;BME280;67164;51.202;0.278;2023-12-22T07:20:59;100754.47;;;19.68;40.51
77975;BME280;67164;51.202;0.278;2023-12-22T07:23:24;100754.49;;;19.69;40.60
77975;BME280;67164;51.202;0.278;2023-12-22T07:25:50;100752.41;;;19.67;40.56
77975;BME280;67164;51.202;0.278;2023-12-22T07:28:16;100737.04;;;19.62;40.59
77975;BME280;67164;51.202;0.278;2023-12-22T07:30:42;100742.91;;;19.40;40.59
77975;BME280;67164;51.202;0.278;2023-12-22T07:33:08;100759.07;;;19.40;40.70
77975;BME280;67164;51.202;0.278;2023-12-22T07:35:33;100752.45;;;19.65;40.68
77975;BME280;67164;51.202;0.278;2023-12-22T07:37:59;100753.48;;;19.60;40.75
77975;BME280;67164;51.202;0.278;2023-12-22T07:40:25;100773.50;;;19.62;40.70
77975;BME280;67164;51.202;0.278;2023-12-22T07:42:50;100781.44;;;19.60;40.69
77975;BME280;67164;51.202;0.278;2023-12-22T07:45:16;100780.93;;;19.60;40.70
77975;BME280;67164;51.202;0.278;2023-12-22T07:47:42;100778.75;;;19.32;40.73
77975;BME280;67164;51.202;0.278;2023-12-22T07:50:08;100779.70;;;19.57;40.71
77975;BME280;67164;51.202;0.278;2023-12-22T07:52:34;100785.65;;;19.56;40.69
77975;BME280;67164;51.202;0.278;2023-12-22T07:54:59;100769.81;;;19.27;40.87
77975;BME280;67164;51.202;0.278;2023-12-22T07:57:25;100781.62;;;19.56;40.90
77975;BME280;67164;51.202;0.278;2023-12-22T07:59:51;100782.54;;;19.45;41.10
77975;BME280;67164;51.202;0.278;2023-12-22T08:02:17;100788.82;;;19.39;41.41
77975;BME280;67164;51.202;0.278;2023-12-22T08:04:42;100795.61;;;19.43;41.70
77975;BME280;67164;51.202;0.278;2023-12-22T08:07:08;100800.87;;;19.40;42.64
77975;BME280;67164;51.202;0.278;2023-12-22T08:09:34;100808.62;;;19.25;42.59
77975;BME280;67164;51.202;0.278;2023-12-22T08:12:00;100809.06;;;19.07;42.61
77975;BME280;67164;51.202;0.278;2023-12-22T08:14:26;100817.75;;;19.07;42.77
77975;BME280;67164;51.202;0.278;2023-12-22T08:16:51;100817.19;;;19.53;42.89
77975;BME280;67164;51.202;0.278;2023-12-22T08:19:17;100821.18;;;19.07;42.93
77975;BME280;67164;51.202;0.278;2023-12-22T08:21:43;100820.36;;;19.17;43.38
77975;BME280;67164;51.202;0.278;2023-12-22T08:24:09;100820.70;;;19.20;43.37
77975;BME280;67164;51.202;0.278;2023-12-22T08:26:34;100820.70;;;19.15;43.58
77975;BME280;67164;51.202;0.278;2023-12-22T08:29:00;100833.40;;;19.35;43.70
77975;BME280;67164;51.202;0.278;2023-12-22T08:31:26;100832.46;;;19.06;43.89
77975;BME280;67164;51.202;0.278;2023-12-22T08:33:52;100834.39;;;19.10;44.05
77975;BME280;67164;51.202;0.278;2023-12-22T08:36:18;100821.81;;;19.01;44.36
77975;BME280;67164;51.202;0.278;2023-12-22T08:38:43;100823.49;;;19.11;44.41
77975;BME280;67164;51.202;0.278;2023-12-22T08:41:09;100831.91;;;19.16;44.47
77975;BME280;67164;51.202;0.278;2023-12-22T08:43:35;100826.54;;;19.16;44.51
77975;BME280;67164;51.202;0.278;2023-12-22T08:46:01;100817.20;;;19.45;44.59
77975;BME280;67164;51.202;0.278;2023-12-22T08:48:27;100815.82;;;19.32;44.57
77975;BME280;67164;51.202;0.278;2023-12-22T08:50:52;100807.39;;;19.27;44.74
77975;BME280;67164;51.202;0.278;2023-12-22T08:53:18;100810.15;;;19.36;44.65
77975;BME280;67164;51.202;0.278;2023-12-22T08:55:44;100816.26;;;19.16;44.68
77975;BME280;67164;51.202;0.278;2023-12-22T08:58:10;100807.21;;;19.39;44.43
77975;BME280;67164;51.202;0.278;2023-12-22T09:00:36;100816.65;;;19.33;44.46
77975;BME280;67164;51.202;0.278;2023-12-22T09:03:01;100820.80;;;19.26;44.34
77975;BME280;67164;51.202;0.278;2023-12-22T09:05:27;100815.88;;;19.20;44.43
77975;BME280;67164;51.202;0.278;2023-12-22T09:07:53;100819.49;;;19.48;44.54
77975;BME280;67164;51.202;0.278;2023-12-22T09:10:19;100816.84;;;19.60;44.51
77975;BME280;67164;51.202;0.278;2023-12-22T09:12:44;100824.14;;;19.65;44.59
77975;BME280;67164;51.202;0.278;2023-12-22T09:15:10;100821.46;;;19.60;44.71
77975;BME280;67164;51.202;0.278;2023-12-22T09:17:36;100827.81;;;19.36;44.81
77975;BME280;67164;51.202;0.278;2023-12-22T09:20:03;100833.67;;;19.68;44.82
77975;BME280;67164;51.202;0.278;2023-12-22T09:22:28;100830.95;;;19.40;44.89
77975;BME280;67164;51.202;0.278;2023-12-22T09:24:53;100835.84;;;19.42;44.75
77975;BME280;67164;51.202;0.278;2023-12-22T09:27:19;100836.52;;;19.55;44.56
77975;BME280;67164;51.202;0.278;2023-12-22T09:29:45;100830.40;;;19.69;44.59
77975;BME280;67164;51.202;0.278;2023-12-22T09:32:11;100840.82;;;19.75;44.51
77975;BME280;67164;51.202;0.278;2023-12-22T09:34:36;100850.88;;;19.69;44.31
77975;BME280;67164;51.202;0.278;2023-12-22T09:37:02;100849.71;;;19.84;44.12
77975;BME280;67164;51.202;0.278;2023-12-22T09:39:28;100854.72;;;19.83;44.06
77975;BME280;67164;51.202;0.278;2023-12-22T09:41:54;100866.42;;;19.86;44.08
77975;BME280;67164;51.202;0.278;2023-12-22T09:44:21;100864.83;;;19.91;43.96
77975;BME280;67164;51.202;0.278;2023-12-22T09:46:46;100871.16;;;19.88;44.03
77975;BME280;67164;51.202;0.278;2023-12-22T09:49:12;100872.85;;;20.04;43.74
77975;BME280;67164;51.202;0.278;2023-12-22T09:51:37;100876.16;;;19.97;43.77
77975;BME280;67164;51.202;0.278;2023-12-22T09:54:04;100873.55;;;19.79;43.94
77975;BME280;67164;51.202;0.278;2023-12-22T09:56:29;100889.87;;;19.92;43.79
77975;BME280;67164;51.202;0.278;2023-12-22T09:58:55;100904.51;;;19.82;43.91
77975;BME280;67164;51.202;0.278;2023-12-22T10:01:20;100897.38;;;19.91;43.79
77975;BME280;67164;51.202;0.278;2023-12-22T10:03:46;100901.54;;;19.82;43.90
77975;BME280;67164;51.202;0.278;2023-12-22T10:06:12;100907.91;;;19.79;44.00
77975;BME280;67164;51.202;0.278;2023-12-22T10:08:38;100913.18;;;20.05;43.94
77975;BME280;67164;51.202;0.278;2023-12-22T10:11:04;100910.86;;;19.87;43.86
77975;BME280;67164;51.202;0.278;2023-12-22T10:13:29;100908.87;;;19.58;44.23
77975;BME280;67164;51.202;0.278;2023-12-22T10:15:55;100904.50;;;20.11;44.35
77975;BME280;67164;51.202;0.278;2023-12-22T10:18:21;100909.11;;;19.94;44.36
77975;BME280;67164;51.202;0.278;2023-12-22T10:20:46;100906.45;;;20.00;44.09
77975;BME280;67164;51.202;0.278;2023-12-22T10:23:12;100907.99;;;20.11;43.87
77975;BME280;67164;51.202;0.278;2023-12-22T10:25:40;100921.39;;;20.24;43.58
77975;BME280;67164;51.202;0.278;2023-12-22T10:28:04;100917.28;;;20.37;43.24
77975;BME280;67164;51.202;0.278;2023-12-22T10:30:30;100917.34;;;20.37;43.10
77975;BME280;67164;51.202;0.278;2023-12-22T10:32:56;100919.47;;;20.38;43.04
77975;BME280;67164;51.202;0.278;2023-12-22T10:35:21;100916.14;;;20.35;43.10
77975;BME280;67164;51.202;0.278;2023-12-22T10:37:47;100925.97;;;20.55;43.07
77975;BME280;67164;51.202;0.278;2023-12-22T10:40:13;100935.87;;;20.40;42.92
77975;BME280;67164;51.202;0.278;2023-12-22T10:42:40;100939.49;;;20.44;42.82
77975;BME280;67164;51.202;0.278;2023-12-22T10:45:06;100939.78;;;20.39;42.74
77975;BME280;67164;51.202;0.278;2023-12-22T10:47:30;100933.92;;;20.22;42.93
77975;BME280;67164;51.202;0.278;2023-12-22T10:49:56;100927.22;;;20.27;42.89
77975;BME280;67164;51.202;0.278;2023-12-22T10:52:21;100924.93;;;20.28;42.82
77975;BME280;67164;51.202;0.278;2023-12-22T10:54:48;100928.36;;;20.35;42.72
77975;BME280;67164;51.202;0.278;2023-12-22T10:57:16;100939.50;;;20.37;42.67
77975;BME280;67164;51.202;0.278;2023-12-22T10:59:44;100929.85;;;20.64;42.60
77975;BME280;67164;51.202;0.278;2023-12-22T11:02:05;100927.57;;;20.35;42.61
77975;BME280;67164;51.202;0.278;2023-12-22T11:04:31;100933.65;;;20.37;42.57
77975;BME280;67164;51.202;0.278;2023-12-22T11:06:58;100933.81;;;20.35;42.56
77975;BME280;67164;51.202;0.278;2023-12-22T11:09:23;100938.74;;;20.35;42.50
77975;BME280;67164;51.202;0.278;2023-12-22T11:11:48;100928.98;;;20.39;42.40
77975;BME280;67164;51.202;0.278;2023-12-22T11:14:14;100928.25;;;20.50;42.49
77975;BME280;67164;51.202;0.278;2023-12-22T11:16:41;100929.92;;;20.30;42.42
77975;BME280;67164;51.202;0.278;2023-12-22T11:19:05;100931.79;;;20.29;42.42
77975;BME280;67164;51.202;0.278;2023-12-22T11:21:31;100935.44;;;20.27;42.40
77975;BME280;67164;51.202;0.278;2023-12-22T11:23:57;100931.48;;;20.28;42.33
77975;BME280;67164;51.202;0.278;2023-12-22T11:26:23;100931.05;;;20.26;42.36
77975;BME280;67164;51.202;0.278;2023-12-22T11:28:49;100932.95;;;20.23;42.33
77975;BME280;67164;51.202;0.278;2023-12-22T11:31:14;100937.77;;;20.22;42.29
77975;BME280;67164;51.202;0.278;2023-12-22T11:33:43;100933.07;;;20.21;42.24
77975;BME280;67164;51.202;0.278;2023-12-22T11:36:06;100934.41;;;20.20;42.28
77975;BME280;67164;51.202;0.278;2023-12-22T11:38:31;100941.91;;;20.14;42.58
77975;BME280;67164;51.202;0.278;2023-12-22T11:40:58;100937.53;;;20.02;42.78
77975;BME280;67164;51.202;0.278;2023-12-22T11:43:23;100931.23;;;20.06;42.65
77975;BME280;67164;51.202;0.278;2023-12-22T11:45:49;100926.68;;;20.15;42.49
77975;BME280;67164;51.202;0.278;2023-12-22T11:48:14;100920.43;;;20.06;42.65
77975;BME280;67164;51.202;0.278;2023-12-22T11:50:40;100922.08;;;20.08;42.72
77975;BME280;67164;51.202;0.278;2023-12-22T11:53:19;100913.05;;;20.16;42.51
77975;BME280;67164;51.202;0.278;2023-12-22T11:57:58;100921.19;;;20.26;42.19
77975;BME280;67164;51.202;0.278;2023-12-22T12:00:38;100911.56;;;20.25;41.97
77975;BME280;67164;51.202;0.278;2023-12-22T12:02:54;100914.25;;;20.19;41.87
77975;BME280;67164;51.202;0.278;2023-12-22T12:05:15;100925.96;;;20.07;41.90
77975;BME280;67164;51.202;0.278;2023-12-22T12:07:43;100917.38;;;19.86;42.45
77975;BME280;67164;51.202;0.278;2023-12-22T12:10:07;100915.81;;;19.80;43.04
77975;BME280;67164;51.202;0.278;2023-12-22T12:12:32;100922.75;;;19.72;44.09
77975;BME280;67164;51.202;0.278;2023-12-22T12:14:58;100920.59;;;19.74;44.16
77975;BME280;67164;51.202;0.278;2023-12-22T12:17:23;100919.13;;;19.35;44.04
77975;BME280;67164;51.202;0.278;2023-12-22T12:19:48;100921.32;;;19.55;44.06
77975;BME280;67164;51.202;0.278;2023-12-22T12:22:14;100916.39;;;19.56;44.13
77975;BME280;67164;51.202;0.278;2023-12-22T12:24:41;100917.44;;;19.80;44.19
77975;BME280;67164;51.202;0.278;2023-12-22T12:27:05;100916.71;;;19.54;44.06
77975;BME280;67164;51.202;0.278;2023-12-22T12:29:32;100913.69;;;19.52;44.10
77975;BME280;67164;51.202;0.278;2023-12-22T12:32:02;100908.78;;;19.98;44.17
77975;BME280;67164;51.202;0.278;2023-12-22T12:34:23;100906.55;;;19.86;44.20
77975;BME280;67164;51.202;0.278;2023-12-22T12:36:47;100918.71;;;19.66;44.16
77975;BME280;67164;51.202;0.278;2023-12-22T12:39:15;100906.61;;;19.64;44.26
77975;BME280;67164;51.202;0.278;2023-12-22T12:41:41;100907.58;;;19.74;44.29
77975;BME280;67164;51.202;0.278;2023-12-22T12:44:04;100910.99;;;19.95;44.36
77975;BME280;67164;51.202;0.278;2023-12-22T12:46:33;100907.69;;;20.06;44.22